| time (UTC) | temp F | wind direction | speed MPH | gust MPH | rain 1hr in | rain 24hr in | rain mn in | humidity % | barometer mb |
| 20260503212943 | 65 | 93 | 4.0 | 4.0 | 0.00 | 0.00 | 0.00 | 36 | 1050.5 |
| 20260503212441 | 65 | 186 | 3.0 | 4.0 | 0.00 | 0.00 | 0.00 | 33 | 1050.8 |
| 20260503211938 | 65 | 160 | 3.0 | 7.0 | 0.00 | 0.00 | 0.00 | 31 | 1051.0 |
| 20260503211435 | 64 | 167 | 3.0 | 7.0 | 0.00 | 0.00 | 0.00 | 33 | 1051.1 |
| 20260503210930 | 64 | 179 | 5.0 | 10.0 | 0.00 | 0.00 | 0.00 | 31 | 1051.2 |
| 20260503210427 | 64 | 245 | 8.0 | 11.0 | 0.00 | 0.00 | 0.00 | 34 | 1051.1 |
| 20260503205922 | 64 | 131 | 3.0 | 9.0 | 0.00 | 0.00 | 0.00 | 35 | 1051.0 |
| 20260503205420 | 64 | 75 | 2.0 | 4.0 | 0.00 | 0.00 | 0.00 | 32 | 1051.2 |
| 20260503204916 | 64 | 201 | 1.0 | 8.0 | 0.00 | 0.00 | 0.00 | 31 | 1051.1 |
| 20260503204413 | 64 | 224 | 5.0 | 9.0 | 0.00 | 0.00 | 0.00 | 34 | 1051.3 |
| 20260503203910 | 64 | 43 | 5.0 | 6.0 | 0.00 | 0.00 | 0.00 | 34 | 1051.1 |
| 20260503203408 | 65 | 195 | 2.0 | 8.0 | 0.00 | 0.00 | 0.00 | 31 | 1051.3 |
| 20260503202904 | 64 | 255 | 6.0 | 8.0 | 0.00 | 0.00 | 0.00 | 30 | 1051.5 |
| 20260503202403 | 64 | 244 | 4.0 | 7.0 | 0.00 | 0.00 | 0.00 | 33 | 1051.8 |
| 20260503201901 | 64 | 129 | 2.0 | 3.0 | 0.00 | 0.00 | 0.00 | 32 | 1052.2 |
| 20260503201357 | 64 | 104 | 2.0 | 4.0 | 0.00 | 0.00 | 0.00 | 36 | 1051.9 |
| 20260503200855 | 64 | 103 | 2.0 | 4.0 | 0.00 | 0.00 | 0.00 | 33 | 1052.2 |
| 20260503200350 | 63 | 200 | 6.0 | 9.0 | 0.00 | 0.00 | 0.00 | 34 | 1052.5 |
| 20260503195848 | 63 | 226 | 7.0 | 9.0 | 0.00 | 0.00 | 0.00 | 32 | 1052.5 |
| 20260503195344 | 63 | 217 | 2.0 | 9.0 | 0.00 | 0.00 | 0.00 | 37 | 1052.4 |
| 20260503194842 | 63 | 286 | 6.0 | 10.0 | 0.00 | 0.00 | 0.00 | 32 | 1052.5 |
| 20260503194337 | 64 | 0 | 4.0 | 8.0 | 0.00 | 0.00 | 0.00 | 30 | 1052.6 |
| 20260503193834 | 64 | 149 | 4.0 | 7.0 | 0.00 | 0.00 | 0.00 | 33 | 1052.9 |
| 20260503193330 | 64 | 246 | 2.0 | 6.0 | 0.00 | 0.00 | 0.00 | 37 | 1052.9 |
| 20260503192826 | 63 | 175 | 7.0 | 9.0 | 0.00 | 0.00 | 0.00 | 30 | 1052.9 |
| 20260503192321 | 63 | 256 | 2.0 | 7.0 | 0.00 | 0.00 | 0.00 | 32 | 1053.0 |
| 20260503191818 | 63 | 171 | 5.0 | 7.0 | 0.00 | 0.00 | 0.00 | 34 | 1053.1 |
| 20260503191315 | 63 | 197 | 7.0 | 8.0 | 0.00 | 0.00 | 0.00 | 31 | 1053.2 |
| 20260503190812 | 64 | 205 | 4.0 | 6.0 | 0.00 | 0.00 | 0.00 | 40 | 1053.2 |
| 20260503190309 | 64 | 145 | 4.0 | 7.0 | 0.00 | 0.00 | 0.00 | 34 | 1053.2 |
| 20260503185806 | 63 | 99 | 2.0 | 8.0 | 0.00 | 0.00 | 0.00 | 42 | 1053.4 |
| 20260503185302 | 62 | 72 | 5.0 | 16.0 | 0.00 | 0.00 | 0.00 | 38 | 1053.1 |
| 20260503184801 | 62 | 87 | 9.0 | 15.0 | 0.00 | 0.00 | 0.00 | 32 | 1053.5 |
| 20260503184258 | 63 | 128 | 3.0 | 11.0 | 0.00 | 0.00 | 0.00 | 35 | 1053.5 |
| 20260503183754 | 62 | 126 | 5.0 | 10.0 | 0.00 | 0.00 | 0.00 | 37 | 1053.6 |
| 20260503183252 | 62 | 202 | 2.0 | 4.0 | 0.00 | 0.00 | 0.00 | 36 | 1053.6 |
| 20260503182749 | 62 | 196 | 2.0 | 6.0 | 0.00 | 0.00 | 0.00 | 35 | 1053.7 |
| 20260503182248 | 61 | 258 | 2.0 | 4.0 | 0.00 | 0.00 | 0.00 | 35 | 1053.6 |
| 20260503181744 | 61 | 258 | 3.0 | 6.0 | 0.00 | 0.00 | 0.00 | 39 | 1053.9 |
| 20260503181241 | 61 | 91 | 4.0 | 11.0 | 0.00 | 0.00 | 0.00 | 32 | 1053.7 |
| 20260503180738 | 60 | 210 | 1.0 | 3.0 | 0.00 | 0.00 | 0.00 | 35 | 1053.6 |
| 20260503180236 | 61 | 83 | 4.0 | 10.0 | 0.00 | 0.00 | 0.00 | 32 | 1054.1 |
| 20260503175732 | 61 | 236 | 2.0 | 7.0 | 0.00 | 0.00 | 0.00 | 34 | 1054.3 |
| 20260503175230 | 60 | 110 | 7.0 | 9.0 | 0.00 | 0.00 | 0.00 | 36 | 1054.4 |
| 20260503174726 | 61 | 108 | 6.0 | 13.0 | 0.00 | 0.00 | 0.00 | 34 | 1054.4 |
| 20260503174225 | 62 | 81 | 3.0 | 6.0 | 0.00 | 0.00 | 0.00 | 33 | 1054.5 |
| 20260503173724 | 60 | 166 | 4.0 | 7.0 | 0.00 | 0.00 | 0.00 | 39 | 1054.4 |
| 20260503173221 | 60 | 107 | 4.0 | 8.0 | 0.00 | 0.00 | 0.00 | 34 | 1054.5 |
| 20260503172718 | 60 | 149 | 4.0 | 7.0 | 0.00 | 0.00 | 0.00 | 35 | 1054.6 |
| 20260503172215 | 60 | 53 | 6.0 | 8.0 | 0.00 | 0.00 | 0.00 | 37 | 1054.8 |
| 20260503171711 | 59 | 75 | 5.0 | 7.0 | 0.00 | 0.00 | 0.00 | 33 | 1054.7 |
| 20260503171209 | 60 | 91 | 7.0 | 15.0 | 0.00 | 0.00 | 0.00 | 34 | 1055.0 |
| 20260503170705 | 60 | 99 | 4.0 | 8.0 | 0.00 | 0.00 | 0.00 | 37 | 1054.8 |
| 20260503170202 | 60 | 81 | 5.0 | 8.0 | 0.00 | 0.00 | 0.00 | 33 | 1055.0 |
| 20260503160124 | 58 | 82 | 6.0 | 7.0 | 0.00 | 0.00 | 0.00 | 32 | 1055.9 |
| 20260503150554 | 57 | 260 | 5.0 | 7.0 | 0.00 | 0.00 | 0.00 | 36 | 1056.4 |
| 20260503130943 | 46 | 108 | 3.0 | 6.0 | 0.00 | 0.00 | 0.00 | 69 | 1056.2 |
| 20260503130441 | 45 | 90 | 6.0 | 7.0 | 0.00 | 0.00 | 0.00 | 68 | 1055.9 |
| 20260503110338 | 30 | 301 | 0.0 | 0.0 | 0.00 | 0.00 | 0.00 | 97 | 1055.4 |
| 20260503090229 | 30 | 55 | 0.0 | 0.0 | 0.00 | 0.00 | 0.00 | 96 | 1054.8 |
| 20260503081202 | 31 | 57 | 0.0 | 0.0 | 0.00 | 0.00 | 0.00 | 96 | 1054.7 |
| 20260503080657 | 31 | 57 | 0.0 | 0.0 | 0.00 | 0.00 | 0.00 | 96 | 1054.5 |
| 20260503080155 | 30 | 57 | 0.0 | 0.0 | 0.00 | 0.00 | 0.00 | 95 | 1054.5 |
| 20260503072632 | 31 | 4 | 0.0 | 0.0 | 0.00 | 0.00 | 0.00 | 95 | 1054.3 |
| 20260503072128 | 31 | 4 | 0.0 | 0.0 | 0.00 | 0.00 | 0.00 | 95 | 1054.3 |
| 20260503071625 | 31 | 4 | 0.0 | 0.0 | 0.00 | 0.00 | 0.00 | 95 | 1054.3 |
| 20260503071121 | 32 | 4 | 0.0 | 0.0 | 0.00 | 0.00 | 0.00 | 95 | 1054.3 |
| 20260503070619 | 32 | 4 | 0.0 | 0.0 | 0.00 | 0.00 | 0.00 | 95 | 1054.3 |
| 20260503070117 | 32 | 4 | 0.0 | 0.0 | 0.00 | 0.00 | 0.00 | 95 | 1054.4 |
| 20260503055037 | 33 | 76 | 0.0 | 0.0 | 0.00 | 0.00 | 0.00 | 92 | 1054.4 |
| 20260503054533 | 34 | 76 | 0.0 | 0.0 | 0.00 | 0.00 | 0.00 | 92 | 1054.5 |
| 20260503054031 | 34 | 76 | 0.0 | 0.0 | 0.00 | 0.00 | 0.00 | 93 | 1054.6 |
| 20260503053528 | 34 | 76 | 0.0 | 0.0 | 0.00 | 0.00 | 0.00 | 93 | 1054.5 |
| 20260503053026 | 34 | 76 | 0.0 | 0.0 | 0.00 | 0.00 | 0.00 | 93 | 1054.6 |
| 20260503052523 | 34 | 76 | 0.0 | 0.0 | 0.00 | 0.00 | 0.00 | 93 | 1054.5 |
| 20260503052019 | 34 | 76 | 0.0 | 0.0 | 0.00 | 0.00 | 0.00 | 93 | 1054.7 |
| 20260503051515 | 34 | 76 | 0.0 | 0.0 | 0.00 | 0.00 | 0.00 | 93 | 1054.6 |
| 20260503051013 | 34 | 76 | 0.0 | 0.0 | 0.00 | 0.00 | 0.00 | 93 | 1054.6 |
| 20260503050508 | 34 | 76 | 0.0 | 0.0 | 0.00 | 0.00 | 0.00 | 93 | 1054.5 |
| 20260503050006 | 35 | 76 | 0.0 | 0.0 | 0.00 | 0.00 | 0.00 | 93 | 1054.5 |
| 20260503045503 | 35 | 76 | 0.0 | 0.0 | 0.00 | 0.00 | 0.00 | 93 | 1054.7 |
| 20260503045000 | 35 | 76 | 0.0 | 0.0 | 0.00 | 0.00 | 0.00 | 93 | 1054.6 |
| 20260503044456 | 35 | 76 | 0.0 | 0.0 | 0.00 | 0.00 | 0.00 | 94 | 1054.5 |
| 20260503043954 | 35 | 66 | 0.0 | 0.0 | 0.00 | 0.00 | 0.00 | 94 | 1054.6 |
| 20260503043450 | 35 | 66 | 0.0 | 0.0 | 0.00 | 0.00 | 0.00 | 93 | 1054.6 |
| 20260503042946 | 35 | 66 | 0.0 | 0.0 | 0.00 | 0.00 | 0.00 | 93 | 1054.4 |
| 20260503042443 | 35 | 66 | 0.0 | 0.0 | 0.00 | 0.00 | 0.00 | 93 | 1054.4 |
| 20260503041940 | 36 | 66 | 0.0 | 0.0 | 0.00 | 0.00 | 0.00 | 93 | 1054.4 |
| 20260503041437 | 36 | 66 | 0.0 | 0.0 | 0.00 | 0.00 | 0.00 | 93 | 1054.4 |
| 20260503040934 | 36 | 66 | 0.0 | 0.0 | 0.00 | 0.00 | 0.00 | 93 | 1054.3 |
| 20260503040432 | 37 | 66 | 0.0 | 0.0 | 0.00 | 0.00 | 0.00 | 93 | 1054.3 |
| 20260503035929 | 37 | 66 | 0.0 | 0.0 | 0.00 | 0.00 | 0.00 | 93 | 1054.3 |
| 20260503035425 | 37 | 66 | 0.0 | 0.0 | 0.00 | 0.00 | 0.00 | 93 | 1054.5 |
| 20260503034923 | 37 | 44 | 0.0 | 0.0 | 0.00 | 0.00 | 0.00 | 93 | 1054.5 |
| 20260503034420 | 37 | 269 | 0.0 | 0.0 | 0.00 | 0.00 | 0.00 | 93 | 1054.5 |
| 20260503033917 | 37 | 269 | 0.0 | 0.0 | 0.00 | 0.00 | 0.00 | 93 | 1054.3 |
| 20260503033415 | 37 | 272 | 0.0 | 0.0 | 0.00 | 0.00 | 0.00 | 93 | 1054.2 |
| 20260503032913 | 37 | 272 | 0.0 | 0.0 | 0.00 | 0.00 | 0.00 | 92 | 1054.4 |
| 20260503032411 | 37 | 272 | 0.0 | 0.0 | 0.00 | 0.00 | 0.00 | 92 | 1054.5 |
| 20260503031908 | 37 | 272 | 0.0 | 0.0 | 0.00 | 0.00 | 0.00 | 92 | 1054.1 |
| 20260503031406 | 37 | 16 | 0.0 | 0.0 | 0.00 | 0.00 | 0.00 | 92 | 1054.1 |
| 20260503030902 | 37 | 17 | 0.0 | 0.0 | 0.00 | 0.00 | 0.00 | 91 | 1054.2 |
| 20260503030359 | 38 | 17 | 0.0 | 0.0 | 0.00 | 0.00 | 0.00 | 91 | 1054.1 |
| 20260503025855 | 38 | 17 | 0.0 | 0.0 | 0.00 | 0.00 | 0.00 | 91 | 1054.1 |
| 20260503025352 | 38 | 17 | 0.0 | 0.0 | 0.00 | 0.00 | 0.00 | 91 | 1054.1 |
| 20260503024850 | 38 | 17 | 0.0 | 0.0 | 0.00 | 0.00 | 0.00 | 91 | 1054.2 |
| 20260503024346 | 38 | 17 | 0.0 | 0.0 | 0.00 | 0.00 | 0.00 | 91 | 1054.0 |
| 20260503023843 | 38 | 338 | 0.0 | 0.0 | 0.00 | 0.00 | 0.00 | 90 | 1054.0 |
| 20260503023341 | 38 | 329 | 0.0 | 0.0 | 0.00 | 0.00 | 0.00 | 89 | 1053.8 |
| 20260503022838 | 38 | 347 | 0.0 | 0.0 | 0.00 | 0.00 | 0.00 | 89 | 1053.7 |
| 20260503022337 | 39 | 348 | 0.0 | 0.0 | 0.00 | 0.00 | 0.00 | 88 | 1053.8 |
| 20260503021834 | 39 | 348 | 0.0 | 0.0 | 0.00 | 0.00 | 0.00 | 87 | 1053.6 |
| 20260503021330 | 39 | 348 | 0.0 | 0.0 | 0.00 | 0.00 | 0.00 | 88 | 1053.5 |
| 20260503020828 | 39 | 261 | 0.0 | 0.0 | 0.00 | 0.00 | 0.00 | 88 | 1053.6 |
| 20260503020326 | 40 | 261 | 0.0 | 0.0 | 0.00 | 0.00 | 0.00 | 87 | 1053.4 |
| 20260503015822 | 40 | 259 | 0.0 | 0.0 | 0.00 | 0.00 | 0.00 | 86 | 1053.2 |
| 20260503015319 | 41 | 276 | 0.0 | 0.0 | 0.00 | 0.00 | 0.00 | 84 | 1053.3 |
| 20260503014814 | 41 | 261 | 0.0 | 0.0 | 0.00 | 0.00 | 0.00 | 82 | 1053.3 |
| 20260503014313 | 42 | 89 | 0.0 | 0.0 | 0.00 | 0.00 | 0.00 | 81 | 1053.2 |
| 20260503013810 | 42 | 89 | 0.0 | 0.0 | 0.00 | 0.00 | 0.00 | 79 | 1053.1 |
| 20260503013307 | 42 | 89 | 0.0 | 0.0 | 0.00 | 0.00 | 0.00 | 82 | 1053.0 |
| 20260503012804 | 43 | 88 | 0.0 | 0.0 | 0.00 | 0.00 | 0.00 | 80 | 1052.8 |
| 20260503012302 | 43 | 88 | 0.0 | 0.0 | 0.00 | 0.00 | 0.00 | 79 | 1052.9 |
| 20260503011758 | 43 | 99 | 0.0 | 0.0 | 0.00 | 0.00 | 0.00 | 80 | 1052.9 |
| 20260503011255 | 43 | 114 | 0.0 | 0.0 | 0.00 | 0.00 | 0.00 | 78 | 1052.6 |
| 20260503010751 | 44 | 114 | 0.0 | 0.0 | 0.00 | 0.00 | 0.00 | 78 | 1052.7 |
| 20260503010248 | 45 | 114 | 0.0 | 0.0 | 0.00 | 0.00 | 0.00 | 76 | 1052.7 |
| 20260503005745 | 46 | 114 | 0.0 | 0.0 | 0.00 | 0.00 | 0.00 | 72 | 1052.6 |
| 20260503005243 | 46 | 114 | 0.0 | 0.0 | 0.00 | 0.00 | 0.00 | 68 | 1052.8 |
| 20260503004739 | 47 | 114 | 0.0 | 0.0 | 0.00 | 0.00 | 0.00 | 66 | 1052.5 |
| 20260503004237 | 48 | 78 | 0.0 | 0.0 | 0.00 | 0.00 | 0.00 | 64 | 1052.7 |
| 20260503003734 | 49 | 73 | 0.0 | 0.0 | 0.00 | 0.00 | 0.00 | 60 | 1052.6 |
| 20260503003231 | 50 | 300 | 0.0 | 0.0 | 0.00 | 0.00 | 0.00 | 57 | 1052.5 |
| 20260503002728 | 50 | 300 | 0.0 | 1.0 | 0.00 | 0.00 | 0.00 | 56 | 1052.5 |
| 20260503002224 | 51 | 310 | 0.0 | 2.0 | 0.00 | 0.00 | 0.00 | 53 | 1052.5 |
| 20260503001720 | 51 | 292 | 1.0 | 2.0 | 0.00 | 0.00 | 0.00 | 52 | 1052.0 |
| 20260503001217 | 51 | 273 | 2.0 | 3.0 | 0.00 | 0.00 | 0.00 | 52 | 1052.2 |
| 20260503000715 | 51 | 267 | 4.0 | 4.0 | 0.00 | 0.00 | 0.00 | 51 | 1052.2 |
| 20260503000212 | 51 | 293 | 2.0 | 3.0 | 0.00 | 0.00 | 0.00 | 50 | 1052.0 |
| 20260502235709 | 52 | 289 | 3.0 | 3.0 | 0.00 | 0.00 | 0.00 | 50 | 1051.9 |
| 20260502235207 | 52 | 296 | 3.0 | 3.0 | 0.00 | 0.00 | 0.00 | 49 | 1052.2 |
| 20260502234703 | 52 | 264 | 4.0 | 3.0 | 0.00 | 0.00 | 0.00 | 49 | 1052.1 |
| 20260502234200 | 52 | 314 | 3.0 | 4.0 | 0.00 | 0.00 | 0.00 | 49 | 1052.2 |
| 20260502233656 | 52 | 260 | 2.0 | 7.0 | 0.00 | 0.00 | 0.00 | 50 | 1052.0 |
| 20260502233153 | 52 | 299 | 2.0 | 2.0 | 0.00 | 0.00 | 0.00 | 52 | 1052.1 |
| 20260502232649 | 52 | 267 | 3.0 | 4.0 | 0.00 | 0.00 | 0.00 | 50 | 1052.0 |
| 20260502232147 | 52 | 276 | 4.0 | 7.0 | 0.00 | 0.00 | 0.00 | 48 | 1052.0 |
| 20260502231643 | 54 | 265 | 4.0 | 8.0 | 0.00 | 0.00 | 0.00 | 47 | 1051.7 |
| 20260502231141 | 55 | 305 | 5.0 | 7.0 | 0.00 | 0.00 | 0.00 | 45 | 1051.8 |
| 20260502230639 | 55 | 281 | 4.0 | 8.0 | 0.00 | 0.00 | 0.00 | 46 | 1051.9 |
| 20260502230137 | 55 | 267 | 3.0 | 4.0 | 0.00 | 0.00 | 0.00 | 44 | 1051.8 |
| 20260502225632 | 55 | 267 | 2.0 | 8.0 | 0.00 | 0.00 | 0.00 | 47 | 1051.9 |
| 20260502225130 | 54 | 300 | 2.0 | 3.0 | 0.00 | 0.00 | 0.00 | 50 | 1051.9 |
| 20260502224626 | 55 | 297 | 6.0 | 7.0 | 0.00 | 0.00 | 0.00 | 46 | 1051.9 |
| 20260502224123 | 56 | 295 | 6.0 | 9.0 | 0.00 | 0.00 | 0.00 | 46 | 1051.8 |
| 20260502223621 | 54 | 292 | 3.0 | 7.0 | 0.00 | 0.00 | 0.00 | 50 | 1052.2 |
| 20260502223119 | 54 | 273 | 5.0 | 8.0 | 0.00 | 0.00 | 0.00 | 49 | 1051.9 |
| 20260502222616 | 54 | 292 | 3.0 | 4.0 | 0.00 | 0.00 | 0.00 | 47 | 1051.9 |
| 20260502222112 | 54 | 290 | 2.0 | 4.0 | 0.00 | 0.00 | 0.00 | 52 | 1052.0 |
| 20260502221608 | 54 | 316 | 2.0 | 4.0 | 0.00 | 0.00 | 0.00 | 50 | 1052.1 |
| 20260502221106 | 54 | 275 | 5.0 | 8.0 | 0.00 | 0.00 | 0.00 | 48 | 1052.0 |
| 20260502220601 | 54 | 267 | 4.0 | 6.0 | 0.00 | 0.00 | 0.00 | 49 | 1051.9 |
| 20260502220058 | 54 | 308 | 3.0 | 3.0 | 0.00 | 0.00 | 0.00 | 52 | 1052.0 |
| 20260502215555 | 54 | 292 | 1.0 | 2.0 | 0.00 | 0.00 | 0.00 | 50 | 1052.2 |
| 20260502215052 | 54 | 264 | 5.0 | 4.0 | 0.00 | 0.00 | 0.00 | 50 | 1052.0 |
| 20260502214549 | 54 | 295 | 4.0 | 8.0 | 0.00 | 0.00 | 0.00 | 49 | 1051.8 |
| 20260502214047 | 55 | 332 | 4.0 | 8.0 | 0.00 | 0.00 | 0.00 | 49 | 1051.7 |
| 20260502213543 | 55 | 295 | 3.0 | 4.0 | 0.00 | 0.00 | 0.00 | 49 | 1051.7 |